Alpine, Utah
Current Conditions -  °F | °C
As of 5:35 AM on Friday 31 Oct 2014 (Local Time) from KPVU Reporting Station
Clear Clear  
Wind Chill: 46°   Ceiling: Unl
Heat Index: 48°   Visibility: 5mi
Dew Point: 32°   Wind: 6mph
Humidity: 54%   Direction: 240°WSW
Pressure: 30.07"   Gusts: NA
Location:  40.45°N, 111.78°W
Report Text: KPVU 311135Z AUTO 24005KT 5SM CLR 09/00 A3007 RMK AO1
Loading
Personal Weather Stations






























Interactive Weather Map New forecast layout! Learn more

10-Day Weather Forecast

Advertisements
Track Severe Weather on mobile